Almere Haven Meer informatie Almere Haven


Onweer radar Meer informatie blitzortung!


Regen radar Meer informatie rain snow radar


Apparatuur in gebruik:

Davis VP2

Meteohub

ALIX 1D

Web-Oke


Het weer levert geen direct gevaar op.    Er zijn geen waarschuwingen afgegeven.

METAR rapporten vliegvelden

   
EHAM - Amsterdam/Schiph, Netherlands
Afstand tot: WZW 42 km
Gewijzigd: 09-03-2021 04:55
Motregen, Grotendeels bewolkt  
Motregen, Grotendeels bewolkt  
   Wind: WZW 20.4 km/h
Wind: WZW 20.4 km/h
Temperatuur: 6°C
Voelt als: 2°C
Dauwpunt: 5°C
Vochtigheid: 93%
Barometer: 1016 hPa
Bewolking: Grotendeels bewolkt
Zicht: 3 km
Bewolking: Licht bewolkt 91.4 m,
Grotendeels bewolkt 121.9 m,
Grotendeels bewolkt 182.9 m
EHAM 090355Z 25011KT 2500 DZ FEW003 BKN004 BKN006 06/05 Q1016 NOSIG
EHDL - Deelen Rnlafb, Netherlands
Afstand tot: ZO 49 km
Gewijzigd: 09-03-2021 04:55
Motregen, Bewolking  
Motregen, Bewolking  
   Wind: ZW 20.4 km/h
Wind: ZW 20.4 km/h
Temperatuur: 4°C
Voelt als: 0°C
Dauwpunt: 3°C
Vochtigheid: 93%
Barometer: 1017 hPa
Bewolking: Bewolking
Zicht: 3 km
Bewolking: Gedeeltelijk bewolkt 121.9 m,
Grotendeels bewolkt 152.4 m,
Bewolking 213.4 m
EHDL 090355Z AUTO 22011KT 170V270 3000 DZ SCT004 BKN005 OVC007 04/03 Q1017 YLO
EHKD - De Kooy (navy), Netherlands
Afstand tot: NW 72 km
Gewijzigd: 09-03-2021 04:55
Bewolking  
Bewolking  
   Wind: NW 16.7 km/h
Wind: NW 16.7 km/h
Temperatuur: 6°C
Voelt als: 3°C
Dauwpunt: 5°C
Vochtigheid: 93%
Barometer: 1015 hPa
Bewolking: Bewolking
Zicht: meer dan 10 km
Bewolking: Gedeeltelijk bewolkt 243.8 m,
Bewolking 304.8 m
EHKD 090355Z AUTO 31009KT 290V010 9999 SCT008 OVC010 06/05 Q1015 REDZ GRN
EHRD - Rotterdam Airpor, Netherlands
Afstand tot: ZW 80 km
Gewijzigd: 09-03-2021 04:55
Motregen, Regen, Grotendeels bewolkt  
Motregen, Regen, Grotendeels bewolkt  
   Wind: ZW 13 km/h
Wind: ZW 13 km/h
Temperatuur: 5°C
Voelt als: 2°C
Dauwpunt: 5°C
Vochtigheid: 100%
Barometer: 1017 hPa
Bewolking: Grotendeels bewolkt
Zicht: 3 km
Bewolking: Grotendeels bewolkt 182.9 m,
Grotendeels bewolkt 213.4 m,
Licht bewolkt 457.2 m
EHRD 090355Z AUTO 23007KT 2800 DZRA BKN006 BKN007 FEW015CB 05/05 Q1017 NOSIG
EHVK - Volkel Rnlafb, Netherlands
Afstand tot: ZZO 87 km
Gewijzigd: 09-03-2021 04:55
Motregen, Bewolking  
Motregen, Bewolking  
   Wind: ZW 22.2 km/h
Wind: ZW 22.2 km/h
Temperatuur: 4°C
Voelt als: -1°C
Dauwpunt: 2°C
Vochtigheid: 87%
Barometer: 1017 hPa
Bewolking: Bewolking
Zicht: 3 km
Bewolking: Gedeeltelijk bewolkt 274.3 m,
Grotendeels bewolkt 304.8 m,
Bewolking 426.7 m
EHVK 090355Z AUTO 22012KT 3200 DZ SCT009 BKN010 OVC014 04/02 Q1017 YLO
EHLW - Leeuwarden Rnlaf, Netherlands
Afstand tot: NNO 95 km
Gewijzigd: 09-03-2021 04:59
Nevel, Bewolking  
Nevel, Bewolking  
   Wind: WNW 9.3 km/h
Wind: WNW 9.3 km/h
Temperatuur: 5°C
Voelt als: 3°C
Dauwpunt: 5°C
Vochtigheid: 100%
Barometer: 1015 hPa
Bewolking: Bewolking
Zicht: 2 km
Bewolking: Bewolking
EHLW 090359Z AUTO 29005KT 1800 BR OVC000 05/05 Q1015 RED

Script ontwikkeld door  Saratoga-weather.org Aangepast voor de template door  Weerstation Leuven

U vindt ons ook hier:

Het Weer Aktueel

UK Metoffice

European Weather Network

Weather Underground

Benelux Weer Netwerk

AWEKAS